Time;durP1;ratioP1;P1;durP2;ratioP2;P2;SDS_P1;SDS_P2;PMS_P1;PMS_P2;Temp;Humidity;BMP_temperature;BMP_pressure;BME280_temperature;BME280_humidity;BME280_pressure;Samples;Min_cycle;Max_cycle;Signal;HPM_P1;HPM_P2
2024/02/04 00:00:18;;;;;;;0.85;0.30;;;8.90;99.90;;;;;;4993219;28;20054;-75
2024/02/04 00:02:44;;;;;;;0.20;0.20;;;8.90;99.30;;;;;;4983029;28;20045;-76
2024/02/04 00:05:10;;;;;;;0.30;0.30;;;9.00;97.40;;;;;;4978656;28;20817;-76
2024/02/04 00:07:36;;;;;;;0.10;0.10;;;9.00;93.60;;;;;;4983460;28;20471;-76
2024/02/04 00:10:03;;;;;;;0.10;0.10;;;9.00;86.00;;;;;;4983574;28;20030;-75
2024/02/04 00:12:29;;;;;;;0.22;0.22;;;9.00;75.30;;;;;;4981729;28;20030;-75
2024/02/04 00:14:55;;;;;;;0.10;0.10;;;9.10;61.60;;;;;;4987733;28;20035;-76
2024/02/04 00:17:21;;;;;;;0.10;0.10;;;9.10;59.50;;;;;;4983336;28;20037;-75
2024/02/04 00:19:47;;;;;;;0.20;0.20;;;9.10;54.60;;;;;;4999202;28;20039;-76
2024/02/04 00:22:16;;;;;;;0.10;0.10;;;9.10;50.20;;;;;;4984188;28;20027;-76
2024/02/04 00:24:43;;;;;;;0.10;0.10;;;9.10;53.20;;;;;;4986317;28;20022;-75
2024/02/04 00:27:09;;;;;;;0.43;0.43;;;9.00;49.30;;;;;;4982321;28;20341;-76
2024/02/04 00:29:35;;;;;;;0.32;0.32;;;9.00;48.80;;;;;;4985125;28;20035;-76
2024/02/04 00:32:01;;;;;;;0.30;0.30;;;9.00;53.30;;;;;;4986659;28;20035;-74
2024/02/04 00:34:27;;;;;;;0.10;0.10;;;9.00;58.00;;;;;;4980406;28;20384;-75
2024/02/04 00:36:54;;;;;;;0.20;0.20;;;9.00;61.70;;;;;;4980333;28;20432;-75
2024/02/04 00:39:20;;;;;;;0.20;0.20;;;8.90;65.80;;;;;;4984249;28;20026;-76
2024/02/04 00:41:46;;;;;;;1.40;0.52;;;8.90;71.70;;;;;;4984333;28;20042;-75
2024/02/04 00:44:13;;;;;;;0.20;0.20;;;8.90;73.80;;;;;;4984508;28;20026;-75
2024/02/04 00:46:39;;;;;;;0.20;0.20;;;8.90;73.10;;;;;;4977271;28;20022;-76
2024/02/04 00:49:05;;;;;;;0.10;0.10;;;8.90;76.40;;;;;;4981572;28;20037;-75
2024/02/04 00:51:32;;;;;;;0.13;0.13;;;8.90;85.80;;;;;;4984256;28;20030;-75
2024/02/04 00:53:59;;;;;;;0.25;0.20;;;8.80;90.00;;;;;;4988409;28;20038;-75
2024/02/04 00:56:25;;;;;;;0.10;0.10;;;8.80;91.10;;;;;;4980661;28;20039;-76
2024/02/04 00:58:51;;;;;;;0.10;0.10;;;8.80;94.00;;;;;;4985849;28;20047;-76
2024/02/04 01:01:19;;;;;;;0.10;0.10;;;8.80;97.40;;;;;;4981969;28;20293;-76
2024/02/04 01:03:46;;;;;;;0.10;0.10;;;8.70;99.90;;;;;;4985645;28;20510;-76
2024/02/04 01:06:13;;;;;;;0.10;0.10;;;8.80;99.90;;;;;;4981807;28;20038;-76
2024/02/04 01:08:39;;;;;;;0.10;0.10;;;8.80;99.90;;;;;;4982679;28;20035;-75
2024/02/04 01:11:05;;;;;;;0.20;0.20;;;8.80;99.90;;;;;;4980203;28;20384;-75
2024/02/04 01:13:31;;;;;;;0.20;0.20;;;8.70;99.90;;;;;;4985557;28;20034;-76
2024/02/04 01:15:58;;;;;;;0.10;0.10;;;8.70;99.90;;;;;;4981045;28;20049;-76
2024/02/04 01:18:24;;;;;;;0.22;0.22;;;8.70;99.90;;;;;;4986551;28;20034;-75
2024/02/04 01:20:50;;;;;;;0.65;0.52;;;8.70;99.90;;;;;;4993200;28;20046;-76
2024/02/04 01:23:18;;;;;;;0.10;0.10;;;8.70;99.90;;;;;;4986465;28;20383;-76
2024/02/04 01:25:44;;;;;;;0.10;0.10;;;8.70;99.90;;;;;;4972621;28;20038;-76
2024/02/04 01:28:10;;;;;;;0.25;0.20;;;8.60;99.90;;;;;;4988524;28;20022;-76
2024/02/04 01:30:37;;;;;;;0.20;0.20;;;8.60;99.90;;;;;;4982592;28;20381;-76
2024/02/04 01:33:03;;;;;;;0.10;0.10;;;8.60;99.90;;;;;;4990315;28;20030;-77
2024/02/04 01:35:30;;;;;;;0.10;0.10;;;8.60;99.90;;;;;;4989560;28;20377;-76
2024/02/04 01:37:56;;;;;;;0.10;0.10;;;8.60;99.90;;;;;;4988036;28;20057;-76
2024/02/04 01:40:22;;;;;;;0.15;0.15;;;8.60;99.90;;;;;;4983729;28;20045;-76
2024/02/04 01:42:48;;;;;;;0.10;0.10;;;8.60;99.90;;;;;;4984452;28;20042;-76
2024/02/04 01:45:15;;;;;;;0.10;0.10;;;8.60;99.90;;;;;;4985804;28;20030;-75
2024/02/04 01:47:41;;;;;;;0.10;0.10;;;8.60;99.90;;;;;;4986503;28;20038;-76
2024/02/04 01:50:08;;;;;;;0.10;0.10;;;8.60;99.90;;;;;;4982265;28;20046;-75
2024/02/04 01:52:39;;;;;;;0.85;0.85;;;8.60;99.90;;;;;;4988613;28;20038;-75
2024/02/04 01:55:05;;;;;;;0.10;0.10;;;8.60;99.90;;;;;;4983182;28;20043;-75
2024/02/04 01:57:34;;;;;;;0.47;0.20;;;8.50;99.90;;;;;;4985230;28;20039;-75
2024/02/04 02:00:00;;;;;;;0.10;0.10;;;8.50;99.90;;;;;;5001949;28;20046;-74
2024/02/04 02:02:26;;;;;;;0.10;0.10;;;8.50;99.90;;;;;;4981094;28;20039;-75
2024/02/04 02:04:53;;;;;;;0.10;0.10;;;8.60;99.90;;;;;;4982009;28;20041;-75
2024/02/04 02:07:24;;;;;;;0.10;0.10;;;8.60;99.90;;;;;;4987636;28;20043;-75
2024/02/04 02:09:50;;;;;;;0.15;0.15;;;8.60;99.90;;;;;;4991402;28;20030;-75
2024/02/04 02:12:30;;;;;;;0.10;0.10;;;8.70;99.90;;;;;;5002208;28;20047;-75
2024/02/04 02:15:25;;;;;;;0.10;0.10;;;8.70;99.90;;;;;;4981518;28;20500;-75
2024/02/04 02:17:58;;;;;;;0.10;0.10;;;8.80;99.90;;;;;;4986289;28;20031;-75
2024/02/04 02:20:42;;;;;;;0.57;0.57;;;8.90;99.90;;;;;;4985640;28;20035;-75
2024/02/04 02:23:14;;;;;;;0.10;0.10;;;8.90;93.40;;;;;;4981437;28;20472;-75
2024/02/04 02:25:41;;;;;;;0.20;0.20;;;9.00;74.90;;;;;;4984445;28;20026;-75
2024/02/04 02:28:07;;;;;;;0.10;0.10;;;9.00;68.30;;;;;;4985363;28;20030;-74
2024/02/04 02:30:33;;;;;;;0.13;0.13;;;9.00;63.20;;;;;;4986199;28;20031;-75
2024/02/04 02:33:00;;;;;;;0.10;0.10;;;9.00;66.90;;;;;;4984572;28;20046;-75
2024/02/04 02:35:26;;;;;;;0.10;0.10;;;9.00;65.70;;;;;;4979806;28;20031;-74
2024/02/04 02:38:04;;;;;;;0.10;0.10;;;9.00;56.50;;;;;;4984873;28;20480;-75
2024/02/04 02:40:47;;;;;;;0.10;0.10;;;9.10;50.80;;;;;;4982886;28;20041;-77
2024/02/04 02:43:13;;;;;;;0.10;0.10;;;9.00;52.70;;;;;;4986806;28;20796;-75
2024/02/04 02:45:42;;;;;;;0.52;0.52;;;9.00;47.30;;;;;;4980677;28;20031;-76
2024/02/04 02:48:10;;;;;;;0.10;0.10;;;9.00;44.70;;;;;;4981576;28;20030;-75
2024/02/04 02:50:37;;;;;;;0.10;0.10;;;9.00;42.80;;;;;;4988342;28;20106;-75
2024/02/04 02:53:03;;;;;;;0.10;0.10;;;9.00;37.40;;;;;;4985213;28;20263;-76
2024/02/04 02:55:29;;;;;;;0.10;0.10;;;9.10;23.60;;;;;;4980773;28;20041;-76
2024/02/04 02:57:56;;;;;;;3.83;0.45;;;9.10;23.00;;;;;;4982944;28;20356;-76
2024/02/04 03:00:22;;;;;;;0.40;0.40;;;9.10;21.30;;;;;;4987476;28;20387;-76
2024/02/04 03:02:48;;;;;;;0.43;0.40;;;9.00;24.60;;;;;;4986242;28;20038;-76
2024/02/04 03:05:18;;;;;;;0.10;0.10;;;9.00;24.40;;;;;;4991371;28;20038;-76
2024/02/04 03:07:45;;;;;;;0.10;0.10;;;9.00;27.20;;;;;;4976397;28;20061;-76
2024/02/04 03:10:11;;;;;;;0.10;0.10;;;9.00;32.30;;;;;;4986409;28;20034;-75
2024/02/04 03:12:37;;;;;;;0.10;0.10;;;9.00;29.60;;;;;;4988050;28;20424;-76
2024/02/04 03:15:04;;;;;;;0.10;0.10;;;9.00;30.00;;;;;;4983009;28;20035;-75
2024/02/04 03:17:30;;;;;;;0.10;0.10;;;9.00;29.70;;;;;;4981677;28;20459;-75
2024/02/04 03:19:56;;;;;;;0.10;0.10;;;9.00;27.00;;;;;;4985218;28;20494;-75
2024/02/04 03:22:23;;;;;;;0.20;0.20;;;9.00;29.60;;;;;;4984283;28;20045;-75
2024/02/04 03:24:50;;;;;;;0.10;0.10;;;9.00;30.50;;;;;;4981681;28;20456;-75
2024/02/04 03:27:20;;;;;;;0.10;0.10;;;8.90;31.90;;;;;;4976657;28;20039;-75
2024/02/04 03:29:47;;;;;;;0.10;0.10;;;8.90;33.70;;;;;;4998186;28;20034;-75
2024/02/04 03:32:14;;;;;;;0.10;0.10;;;8.90;37.30;;;;;;4983712;28;20479;-74
2024/02/04 03:34:43;;;;;;;0.10;0.10;;;9.00;40.20;;;;;;4987394;28;20049;-77
2024/02/04 03:37:09;;;;;;;0.10;0.10;;;9.00;42.20;;;;;;4978426;28;20054;-76
2024/02/04 03:39:36;;;;;;;0.10;0.10;;;9.00;34.00;;;;;;4990330;28;20037;-76
2024/02/04 03:42:02;;;;;;;0.10;0.10;;;9.00;25.90;;;;;;4984097;28;20454;-77
2024/02/04 03:44:29;;;;;;;0.10;0.10;;;9.00;23.40;;;;;;4984656;28;20392;-76
2024/02/04 03:46:55;;;;;;;0.10;0.10;;;9.00;27.00;;;;;;4983098;28;20038;-76
2024/02/04 03:49:21;;;;;;;0.10;0.10;;;9.00;34.50;;;;;;4982935;28;20468;-76
2024/02/04 03:51:47;;;;;;;0.10;0.10;;;8.90;43.00;;;;;;4982698;28;20034;-76
2024/02/04 03:54:14;;;;;;;0.10;0.10;;;8.90;47.90;;;;;;4982256;28;20045;-76
2024/02/04 03:56:41;;;;;;;0.10;0.10;;;8.90;58.50;;;;;;4982998;28;20046;-76
2024/02/04 03:59:10;;;;;;;0.10;0.10;;;9.00;45.80;;;;;;4976947;28;20050;-76
2024/02/04 04:01:37;;;;;;;0.20;0.20;;;9.00;35.90;;;;;;4981905;28;20053;-76
2024/02/04 04:04:03;;;;;;;0.10;0.10;;;9.10;23.60;;;;;;4983708;28;20034;-77
2024/02/04 04:06:29;;;;;;;0.28;0.20;;;9.00;23.60;;;;;;4985884;28;20038;-75
2024/02/04 04:08:58;;;;;;;0.22;0.22;;;9.00;16.80;;;;;;4972351;28;20027;-76
2024/02/04 04:11:25;;;;;;;0.10;0.10;;;9.10;14.70;;;;;;4978635;28;20046;-76
2024/02/04 04:13:51;;;;;;;0.28;0.28;;;9.00;16.90;;;;;;4984173;28;20376;-76
2024/02/04 04:16:21;;;;;;;0.10;0.10;;;9.00;20.70;;;;;;4986312;28;20038;-76
2024/02/04 04:18:47;;;;;;;0.10;0.10;;;9.00;20.00;;;;;;4980870;28;20456;-76
2024/02/04 04:21:13;;;;;;;0.10;0.10;;;9.00;24.60;;;;;;4973779;28;20405;-76
2024/02/04 04:23:39;;;;;;;0.10;0.10;;;9.00;27.40;;;;;;4981293;28;20515;-77
2024/02/04 04:26:05;;;;;;;0.10;0.10;;;9.00;21.10;;;;;;4982491;28;20038;-76
2024/02/04 04:28:31;;;;;;;0.10;0.10;;;9.00;20.90;;;;;;4985964;28;20034;-76
2024/02/04 04:30:58;;;;;;;0.10;0.10;;;9.00;17.90;;;;;;4979249;28;20030;-76
2024/02/04 04:33:24;;;;;;;0.10;0.10;;;9.00;21.20;;;;;;4978328;28;20033;-76
2024/02/04 04:35:50;;;;;;;0.10;0.10;;;9.00;21.70;;;;;;4983852;28;20041;-75
2024/02/04 04:38:16;;;;;;;0.40;0.40;;;9.00;20.00;;;;;;4987420;28;20455;-75
2024/02/04 04:40:42;;;;;;;0.10;0.10;;;9.00;18.40;;;;;;4980644;28;20050;-76
2024/02/04 04:43:08;;;;;;;0.00;0.00;;;9.00;18.70;;;;;;4980977;28;20376;-76
2024/02/04 04:45:35;;;;;;;0.10;0.10;;;9.00;22.20;;;;;;4999133;28;20042;-75
2024/02/04 04:48:01;;;;;;;0.17;0.17;;;9.00;13.90;;;;;;4984734;28;20033;-76
2024/02/04 04:50:27;;;;;;;0.10;0.10;;;9.00;12.90;;;;;;4986756;28;20047;-76
2024/02/04 04:52:53;;;;;;;0.10;0.10;;;9.00;14.50;;;;;;4989595;28;20034;-75
2024/02/04 04:55:19;;;;;;;0.10;0.10;;;9.00;20.10;;;;;;4988176;28;20031;-75
2024/02/04 04:57:46;;;;;;;0.85;0.73;;;9.00;15.20;;;;;;4985215;28;20034;-76
2024/02/04 05:00:13;;;;;;;0.10;0.10;;;9.00;15.60;;;;;;4987928;28;20033;-76
2024/02/04 05:02:43;;;;;;;0.10;0.10;;;9.00;14.00;;;;;;4983826;28;20030;-76
2024/02/04 05:05:13;;;;;;;0.10;0.10;;;9.10;9.50;;;;;;4983338;28;20026;-75
2024/02/04 05:07:39;;;;;;;0.30;0.30;;;9.10;13.60;;;;;;4989083;28;20042;-75
2024/02/04 05:10:06;;;;;;;0.22;0.22;;;9.00;13.90;;;;;;4989267;28;20023;-76
2024/02/04 05:12:33;;;;;;;0.10;0.10;;;9.00;14.10;;;;;;4989736;28;20427;-76
2024/02/04 05:15:00;;;;;;;0.20;0.20;;;9.00;16.80;;;;;;4988230;28;20046;-76
2024/02/04 05:17:26;;;;;;;0.10;0.10;;;9.10;17.50;;;;;;4994460;28;20026;-76
2024/02/04 05:19:52;;;;;;;0.10;0.10;;;9.00;19.90;;;;;;4986209;28;20053;-75
2024/02/04 05:22:19;;;;;;;0.10;0.10;;;9.00;18.50;;;;;;4987310;28;20080;-75
2024/02/04 05:24:45;;;;;;;0.10;0.10;;;9.00;23.20;;;;;;4984184;28;20031;-76
2024/02/04 05:27:11;;;;;;;0.10;0.10;;;9.00;21.10;;;;;;5001346;28;20034;-75
2024/02/04 05:29:37;;;;;;;0.10;0.10;;;9.00;20.10;;;;;;4985948;28;20030;-75
2024/02/04 05:32:04;;;;;;;0.10;0.10;;;9.00;24.70;;;;;;4987433;28;20452;-76
2024/02/04 05:34:31;;;;;;;0.40;0.40;;;9.00;21.90;;;;;;4985688;28;20038;-75
2024/02/04 05:36:57;;;;;;;0.20;0.20;;;9.00;23.80;;;;;;4981273;28;20072;-75
2024/02/04 05:39:24;;;;;;;0.10;0.10;;;9.00;21.40;;;;;;4984227;28;20054;-75
2024/02/04 05:41:50;;;;;;;0.10;0.10;;;9.00;21.00;;;;;;4983448;28;20038;-75
2024/02/04 05:44:16;;;;;;;0.10;0.10;;;8.90;16.60;;;;;;4986487;28;20038;-75
2024/02/04 05:46:42;;;;;;;0.10;0.10;;;8.90;15.90;;;;;;5000866;28;20023;-75
2024/02/04 05:49:08;;;;;;;0.10;0.10;;;8.90;13.00;;;;;;4988151;28;20027;-75
2024/02/04 05:51:42;;;;;;;0.10;0.10;;;8.90;14.50;;;;;;4986266;28;20046;-76
2024/02/04 05:54:08;;;;;;;0.20;0.20;;;8.90;16.10;;;;;;4986228;28;20038;-75
2024/02/04 05:56:35;;;;;;;0.10;0.10;;;8.90;22.40;;;;;;4984234;28;20037;-75
2024/02/04 05:59:01;;;;;;;0.10;0.10;;;8.90;22.10;;;;;;4985231;28;20030;-76
2024/02/04 06:01:27;;;;;;;0.10;0.10;;;8.90;20.60;;;;;;4982517;28;20038;-75
2024/02/04 06:03:53;;;;;;;0.20;0.20;;;8.90;20.70;;;;;;4987857;28;20027;-75
2024/02/04 06:06:20;;;;;;;0.75;0.75;;;8.90;11.10;;;;;;4985689;28;20387;-74
2024/02/04 06:08:46;;;;;;;0.20;0.20;;;9.00;10.40;;;;;;4982768;28;20038;-75
2024/02/04 06:11:13;;;;;;;0.10;0.10;;;8.90;13.20;;;;;;4988270;28;20031;-75
2024/02/04 06:13:41;;;;;;;0.10;0.10;;;8.90;19.70;;;;;;4986191;28;20352;-75
2024/02/04 06:16:08;;;;;;;0.30;0.30;;;8.90;25.60;;;;;;4987068;28;20035;-75
2024/02/04 06:18:37;;;;;;;0.10;0.10;;;8.80;23.40;;;;;;4989635;28;20042;-75
2024/02/04 06:21:07;;;;;;;0.10;0.10;;;8.90;14.20;;;;;;4981894;28;20045;-75
2024/02/04 06:23:34;;;;;;;0.20;0.20;;;8.90;1.80;;;;;;4983093;28;20383;-75
2024/02/04 06:26:01;;;;;;;0.10;0.10;;;8.90;1.00;;;;;;4986368;28;20033;-75
2024/02/04 06:28:27;;;;;;;0.10;0.10;;;8.90;2.30;;;;;;4984128;28;20041;-75
2024/02/04 06:30:54;;;;;;;0.10;0.10;;;8.90;2.40;;;;;;4981443;28;20037;-75
2024/02/04 06:33:20;;;;;;;0.13;0.13;;;8.90;2.30;;;;;;4985862;28;20037;-75
2024/02/04 06:35:46;;;;;;;0.10;0.10;;;8.90;3.70;;;;;;4987240;28;20033;-75
2024/02/04 06:38:12;;;;;;;0.13;0.13;;;8.80;9.50;;;;;;4985896;28;20055;-74
2024/02/04 06:40:39;;;;;;;0.10;0.10;;;8.80;9.40;;;;;;4981639;28;20027;-75
2024/02/04 06:43:05;;;;;;;0.20;0.20;;;8.80;12.90;;;;;;4980728;28;20042;-75
2024/02/04 06:45:31;;;;;;;0.10;0.10;;;8.80;15.30;;;;;;4986084;28;20037;-75
2024/02/04 06:47:57;;;;;;;0.10;0.10;;;8.70;16.00;;;;;;4983639;28;20027;-75
2024/02/04 06:50:23;;;;;;;0.10;0.10;;;8.80;18.80;;;;;;4985554;28;20030;-75
2024/02/04 06:52:49;;;;;;;0.10;0.10;;;8.70;12.30;;;;;;4982521;28;20459;-74
2024/02/04 06:55:15;;;;;;;0.10;0.10;;;8.80;14.20;;;;;;4991435;28;20026;-74
2024/02/04 06:57:42;;;;;;;0.10;0.10;;;8.80;14.20;;;;;;4989437;28;20042;-74
2024/02/04 07:00:08;;;;;;;0.10;0.10;;;8.80;18.20;;;;;;4976719;28;20034;-74
2024/02/04 07:02:35;;;;;;;0.10;0.10;;;8.80;21.30;;;;;;4982197;28;20023;-74
2024/02/04 07:05:01;;;;;;;0.10;0.10;;;8.70;21.70;;;;;;4964673;28;20039;-75
2024/02/04 07:07:27;;;;;;;0.10;0.10;;;8.70;23.90;;;;;;4986414;28;20042;-74
2024/02/04 07:09:53;;;;;;;0.10;0.10;;;8.70;17.10;;;;;;4984883;28;20026;-75
2024/02/04 07:12:19;;;;;;;0.10;0.10;;;8.80;10.50;;;;;;4983595;28;20034;-75
2024/02/04 07:14:46;;;;;;;0.10;0.10;;;8.80;10.30;;;;;;4979199;28;20041;-74
2024/02/04 07:17:12;;;;;;;0.10;0.10;;;8.80;10.30;;;;;;4984249;28;20026;-75
2024/02/04 07:19:38;;;;;;;0.10;0.10;;;8.70;23.40;;;;;;4986881;28;20153;-74
2024/02/04 07:22:05;;;;;;;0.10;0.10;;;8.60;47.50;;;;;;4982722;28;20034;-74
2024/02/04 07:24:31;;;;;;;0.10;0.10;;;8.60;74.60;;;;;;4982936;28;20043;-74
2024/02/04 07:26:57;;;;;;;0.10;0.10;;;8.50;92.80;;;;;;4983516;28;20039;-75
2024/02/04 07:29:23;;;;;;;0.10;0.10;;;8.50;99.90;;;;;;5000082;28;20037;-74
2024/02/04 07:31:50;;;;;;;0.10;0.10;;;8.40;99.90;;;;;;4984437;28;20042;-74
2024/02/04 07:34:16;;;;;;;0.10;0.10;;;8.40;99.90;;;;;;4979175;28;20350;-74
2024/02/04 07:36:43;;;;;;;0.15;0.15;;;8.40;99.90;;;;;;4978635;28;20050;-74
2024/02/04 07:39:10;;;;;;;0.20;0.20;;;8.40;99.90;;;;;;4983921;28;20150;-74
2024/02/04 07:41:36;;;;;;;0.10;0.10;;;8.40;99.90;;;;;;4985680;28;20043;-74
2024/02/04 07:44:03;;;;;;;0.40;0.40;;;8.40;99.90;;;;;;4980905;28;20056;-74
2024/02/04 07:46:29;;;;;;;0.20;0.20;;;8.40;99.90;;;;;;4984173;28;20468;-74
2024/02/04 07:48:55;;;;;;;0.10;0.10;;;8.30;99.90;;;;;;4984488;28;20043;-74
2024/02/04 07:51:22;;;;;;;0.20;0.20;;;8.30;99.90;;;;;;4982321;28;20029;-75
2024/02/04 07:53:50;;;;;;;0.20;0.20;;;8.30;99.90;;;;;;4986236;28;20038;-74
2024/02/04 07:56:17;;;;;;;0.10;0.10;;;8.30;99.90;;;;;;4978420;28;20045;-74
2024/02/04 07:58:43;;;;;;;0.10;0.10;;;8.30;99.90;;;;;;4984195;28;20027;-74
2024/02/04 08:01:09;;;;;;;0.10;0.10;;;8.20;99.90;;;;;;4984170;28;20022;-74
2024/02/04 08:03:35;;;;;;;0.10;0.10;;;8.20;99.90;;;;;;4986763;28;20034;-74
2024/02/04 08:06:02;;;;;;;0.17;0.17;;;8.20;99.90;;;;;;4981037;28;20443;-75
2024/02/04 08:08:28;;;;;;;0.20;0.20;;;8.20;99.90;;;;;;4980733;28;20487;-75
2024/02/04 08:10:55;;;;;;;0.52;0.25;;;8.30;99.90;;;;;;4982810;28;20062;-75
2024/02/04 08:13:21;;;;;;;0.20;0.20;;;8.30;99.90;;;;;;4979735;28;20031;-75
2024/02/04 08:15:47;;;;;;;1.45;0.80;;;8.30;99.90;;;;;;4982033;28;20041;-75
2024/02/04 08:18:13;;;;;;;0.10;0.10;;;8.30;99.90;;;;;;4979282;28;20030;-75
2024/02/04 08:20:39;;;;;;;0.10;0.10;;;8.40;99.90;;;;;;4984645;28;20051;-75
2024/02/04 08:23:06;;;;;;;0.10;0.10;;;8.40;99.90;;;;;;4984233;28;20042;-75
2024/02/04 08:25:32;;;;;;;0.10;0.10;;;8.40;99.90;;;;;;4984847;28;20371;-75
2024/02/04 08:27:58;;;;;;;0.17;0.17;;;8.40;99.90;;;;;;4985393;28;20035;-75
2024/02/04 08:30:25;;;;;;;0.10;0.10;;;8.40;99.90;;;;;;4980408;28;20047;-74
2024/02/04 08:32:51;;;;;;;0.13;0.13;;;8.40;99.90;;;;;;4978601;28;20038;-75
2024/02/04 08:35:17;;;;;;;0.20;0.20;;;8.40;99.90;;;;;;4975442;28;21498;-75
2024/02/04 08:37:44;;;;;;;0.10;0.10;;;8.40;99.90;;;;;;4991584;28;20057;-75
2024/02/04 08:40:10;;;;;;;0.17;0.17;;;8.40;99.90;;;;;;4988086;28;20026;-75
2024/02/04 08:42:36;;;;;;;3.05;0.30;;;8.40;99.90;;;;;;4991453;28;20026;-75
2024/02/04 08:45:03;;;;;;;0.20;0.20;;;8.40;99.90;;;;;;4986419;28;21205;-75
2024/02/04 08:47:29;;;;;;;0.50;0.50;;;8.40;99.90;;;;;;4988786;28;20452;-75
2024/02/04 08:49:55;;;;;;;0.10;0.10;;;8.40;99.90;;;;;;4987146;28;20034;-74
2024/02/04 08:52:21;;;;;;;0.10;0.10;;;8.40;99.90;;;;;;4992139;28;20018;-74
2024/02/04 08:54:48;;;;;;;0.13;0.13;;;8.40;99.90;;;;;;4992668;28;20034;-75
2024/02/04 08:57:14;;;;;;;0.15;0.15;;;8.40;99.90;;;;;;4986898;28;20046;-75
2024/02/04 08:59:40;;;;;;;0.30;0.30;;;8.50;99.90;;;;;;4989938;28;20035;-75
2024/02/04 09:02:06;;;;;;;0.10;0.10;;;8.50;99.90;;;;;;4978478;28;20030;-75
2024/02/04 09:04:40;;;;;;;0.10;0.10;;;8.60;98.60;;;;;;4987195;28;20052;-74
2024/02/04 09:07:09;;;;;;;1.77;0.65;;;8.60;93.50;;;;;;4987466;28;20051;-74
2024/02/04 09:09:35;;;;;;;0.52;0.52;;;8.70;79.70;;;;;;4992206;28;20381;-74
2024/02/04 09:12:01;;;;;;;0.20;0.20;;;8.80;53.20;;;;;;4977090;28;20410;-74
2024/02/04 09:14:27;;;;;;;0.10;0.10;;;8.80;45.30;;;;;;4990928;28;20026;-74
2024/02/04 09:16:54;;;;;;;0.10;0.10;;;8.90;39.30;;;;;;4989114;28;20026;-74
2024/02/04 09:19:20;;;;;;;0.20;0.20;;;9.10;19.80;;;;;;4991671;28;20026;-74
2024/02/04 09:21:46;;;;;;;0.22;0.22;;;9.10;3.00;;;;;;4986412;28;20034;-74
2024/02/04 09:24:12;;;;;;;0.32;0.20;;;9.30;1.00;;;;;;4988442;28;20033;-74
2024/02/04 09:26:39;;;;;;;0.17;0.17;;;9.40;1.00;;;;;;4989613;28;20034;-73
2024/02/04 09:29:05;;;;;;;0.13;0.13;;;9.50;1.00;;;;;;4986958;28;20038;-74
2024/02/04 09:31:31;;;;;;;0.15;0.15;;;9.70;1.00;;;;;;4988773;28;20460;-75
2024/02/04 09:33:58;;;;;;;0.10;0.10;;;9.90;1.00;;;;;;4988720;28;20038;-75
2024/02/04 09:36:24;;;;;;;0.10;0.10;;;10.00;99.90;;;;;;4985216;28;20377;-74
2024/02/04 09:38:53;;;;;;;0.17;0.17;;;10.10;99.90;;;;;;4980897;28;20046;-74
2024/02/04 09:41:20;;;;;;;0.10;0.10;;;10.10;99.90;;;;;;4991495;28;20132;-75
2024/02/04 09:43:47;;;;;;;0.10;0.10;;;10.20;99.90;;;;;;4992775;28;20050;-75
2024/02/04 09:46:13;;;;;;;0.10;0.10;;;10.20;99.90;;;;;;4987566;28;20061;-74
2024/02/04 09:48:40;;;;;;;0.17;0.10;;;10.30;99.90;;;;;;4985541;28;20042;-74
2024/02/04 09:51:07;;;;;;;0.10;0.10;;;10.30;99.90;;;;;;4987939;28;20042;-74
2024/02/04 09:53:35;;;;;;;0.10;0.10;;;10.40;99.90;;;;;;4983869;28;20038;-74
2024/02/04 09:56:03;;;;;;;0.10;0.10;;;10.50;99.90;;;;;;4979566;28;20369;-73
2024/02/04 09:58:30;;;;;;;0.17;0.10;;;10.60;99.90;;;;;;4985401;28;20034;-74
2024/02/04 10:00:57;;;;;;;0.10;0.10;;;10.70;99.90;;;;;;4989170;28;20376;-74
2024/02/04 10:03:23;;;;;;;0.20;0.20;;;10.60;99.90;;;;;;4985005;28;20039;-75
2024/02/04 10:05:49;;;;;;;0.10;0.10;;;10.60;99.90;;;;;;4987050;28;20030;-74
2024/02/04 10:08:15;;;;;;;0.22;0.20;;;10.60;99.90;;;;;;4982652;28;20078;-74
2024/02/04 10:10:42;;;;;;;0.10;0.10;;;10.70;99.90;;;;;;4987816;28;20035;-73
2024/02/04 10:13:09;;;;;;;0.10;0.10;;;10.80;99.90;;;;;;4983832;28;20034;-74
2024/02/04 10:15:36;;;;;;;0.10;0.10;;;11.00;99.90;;;;;;4981327;28;20050;-73
2024/02/04 10:18:07;;;;;;;0.10;0.10;;;11.10;99.90;;;;;;4988222;28;20021;-76
2024/02/04 10:20:34;;;;;;;0.10;0.10;;;10.90;99.90;;;;;;4987042;28;20038;-76
2024/02/04 10:23:00;;;;;;;0.25;0.25;;;10.70;99.90;;;;;;4989308;28;20053;-76
2024/02/04 10:25:27;;;;;;;0.10;0.10;;;10.60;99.90;;;;;;4972922;28;20042;-73
2024/02/04 10:27:54;;;;;;;0.90;0.35;;;10.70;99.90;;;;;;4981263;28;20030;-72
2024/02/04 10:30:21;;;;;;;0.10;0.10;;;10.70;99.90;;;;;;4984452;28;20440;-75
2024/02/04 10:32:56;;;;;;;0.10;0.10;;;10.80;99.90;;;;;;4986769;28;20031;-75
2024/02/04 10:35:23;;;;;;;0.10;0.10;;;10.90;99.90;;;;;;4983337;28;20046;-75
2024/02/04 10:37:50;;;;;;;0.10;0.10;;;11.00;99.90;;;;;;4981227;28;20491;-75
2024/02/04 10:40:17;;;;;;;0.10;0.10;;;11.20;99.90;;;;;;4984288;28;20041;-75
2024/02/04 10:42:44;;;;;;;0.10;0.10;;;11.20;99.90;;;;;;4989918;28;20030;-74
2024/02/04 10:45:11;;;;;;;0.15;0.15;;;11.30;99.90;;;;;;4982988;28;20027;-74
2024/02/04 10:47:38;;;;;;;0.10;0.10;;;11.20;98.80;;;;;;4981842;28;20034;-76
2024/02/04 10:50:05;;;;;;;0.10;0.10;;;11.10;99.90;;;;;;4984686;28;20522;-74
2024/02/04 10:52:46;;;;;;;0.20;0.20;;;11.00;99.90;;;;;;4984656;28;20053;-74
2024/02/04 10:55:14;;;;;;;0.20;0.20;;;10.90;99.90;;;;;;4985765;28;20042;-73
2024/02/04 10:57:40;;;;;;;0.10;0.10;;;10.90;99.90;;;;;;4985932;28;20030;-73
2024/02/04 11:00:08;;;;;;;0.10;0.10;;;10.90;99.90;;;;;;4980257;28;20456;-73
2024/02/04 11:02:36;;;;;;;0.10;0.10;;;10.80;99.90;;;;;;4984178;28;20027;-73
2024/02/04 11:05:04;;;;;;;0.22;0.22;;;11.00;99.90;;;;;;4986580;28;20027;-73
2024/02/04 11:07:34;;;;;;;0.10;0.10;;;11.00;99.90;;;;;;4983020;28;20035;-73
2024/02/04 11:10:02;;;;;;;0.10;0.10;;;11.10;99.90;;;;;;4982918;28;20368;-73
2024/02/04 11:12:31;;;;;;;0.10;0.10;;;11.00;99.90;;;;;;4979462;28;20884;-73
2024/02/04 11:15:01;;;;;;;0.10;0.10;;;11.00;99.90;;;;;;4985648;28;20444;-72
2024/02/04 11:18:04;;;;;;;0.10;0.10;;;11.00;99.90;;;;;;4982743;28;20057;-73
2024/02/04 11:20:58;;;;;;;0.20;0.20;;;11.00;99.90;;;;;;4981461;28;20459;-72
2024/02/04 11:23:52;;;;;;;0.10;0.10;;;11.00;99.90;;;;;;4981065;28;20042;-73
2024/02/04 11:26:19;;;;;;;0.40;0.40;;;10.90;99.90;;;;;;4985919;28;20026;-72
2024/02/04 11:28:46;;;;;;;0.10;0.10;;;10.90;99.90;;;;;;4985133;28;20045;-72
2024/02/04 11:31:17;;;;;;;0.10;0.10;;;10.80;99.90;;;;;;4985793;28;20034;-73
2024/02/04 11:33:45;;;;;;;0.20;0.17;;;10.80;99.90;;;;;;4982182;28;20106;-72
2024/02/04 11:36:15;;;;;;;0.73;0.20;;;10.70;99.90;;;;;;4989363;28;20038;-73
2024/02/04 11:38:41;;;;;;;0.27;0.27;;;10.70;99.90;;;;;;4981916;28;20384;-72
2024/02/04 11:41:08;;;;;;;0.40;0.40;;;10.80;99.90;;;;;;4980051;28;20035;-75
2024/02/04 11:43:35;;;;;;;0.10;0.10;;;10.80;99.90;;;;;;4996035;28;20037;-72
2024/02/04 11:46:05;;;;;;;0.10;0.10;;;10.80;99.90;;;;;;4987465;28;20356;-73
2024/02/04 11:48:33;;;;;;;0.10;0.10;;;10.90;99.90;;;;;;4984026;28;20033;-72
2024/02/04 11:51:02;;;;;;;0.10;0.10;;;10.90;99.90;;;;;;4988122;28;20034;-72
2024/02/04 11:53:32;;;;;;;0.10;0.10;;;10.90;99.90;;;;;;4981201;28;20018;-73
2024/02/04 11:56:00;;;;;;;0.10;0.10;;;11.00;99.90;;;;;;4987777;28;20038;-73
2024/02/04 11:58:28;;;;;;;0.10;0.10;;;11.00;99.90;;;;;;4980062;28;20053;-73
2024/02/04 12:00:57;;;;;;;0.10;0.10;;;10.90;99.90;;;;;;4987012;28;20027;-73
2024/02/04 12:03:33;;;;;;;0.10;0.10;;;11.00;99.90;;;;;;4982507;28;20593;-73
2024/02/04 12:06:00;;;;;;;0.10;0.10;;;11.30;99.90;;;;;;4982077;28;20039;-73
2024/02/04 12:08:28;;;;;;;0.00;0.00;;;11.50;77.30;;;;;;4979550;28;20038;-75
2024/02/04 12:10:55;;;;;;;0.10;0.10;;;11.60;75.10;;;;;;4982528;28;20026;-72
2024/02/04 12:13:21;;;;;;;0.10;0.10;;;11.50;64.60;;;;;;4980350;28;20057;-74
2024/02/04 12:15:48;;;;;;;0.10;0.10;;;11.40;89.50;;;;;;4981361;28;20039;-74
2024/02/04 12:18:17;;;;;;;0.10;0.10;;;11.40;95.40;;;;;;4983958;28;20029;-74
2024/02/04 12:20:43;;;;;;;0.10;0.10;;;11.40;99.90;;;;;;4984483;28;20455;-73
2024/02/04 12:23:10;;;;;;;0.10;0.10;;;11.50;95.90;;;;;;4990105;28;20050;-72
2024/02/04 12:25:36;;;;;;;0.17;0.17;;;11.70;72.70;;;;;;4980144;28;20027;-72
2024/02/04 12:30:55;;;;;;;0.10;0.10;;;11.70;56.10;;;;;;4979384;23;20049;-73
2024/02/04 12:33:21;;;;;;;0.20;0.20;;;11.60;56.60;;;;;;5044576;28;20049;-75
2024/02/04 12:35:52;;;;;;;0.90;0.22;;;11.60;52.90;;;;;;5042731;28;20028;-73
2024/02/04 12:38:18;;;;;;;0.10;0.10;;;11.70;66.10;;;;;;5046051;28;20033;-72
2024/02/04 12:40:44;;;;;;;0.38;0.35;;;11.80;31.00;;;;;;5046832;28;20029;-73
2024/02/04 12:43:11;;;;;;;0.10;0.10;;;11.60;68.80;;;;;;5047450;28;20030;-73
2024/02/04 12:45:38;;;;;;;0.13;0.13;;;11.50;72.50;;;;;;5037184;28;20059;-72
2024/02/04 12:48:04;;;;;;;0.10;0.10;;;11.40;91.80;;;;;;5048351;28;20453;-72
2024/02/04 12:50:33;;;;;;;0.15;0.15;;;11.30;94.30;;;;;;5046127;28;20033;-73
2024/02/04 12:53:05;;;;;;;0.15;0.15;;;11.20;99.90;;;;;;5046891;28;20067;-72
2024/02/04 12:55:32;;;;;;;0.22;0.20;;;11.10;99.90;;;;;;5042864;28;20033;-72
2024/02/04 12:58:09;;;;;;;0.10;0.10;;;11.10;99.90;;;;;;5017142;28;20041;-73